createdAt,value
2019-03-11T00:04:28.377Z,4.50
2019-03-11T00:09:32.077Z,4.50
2019-03-11T00:14:35.728Z,4.60
2019-03-11T00:19:39.375Z,4.60
2019-03-11T00:24:43.275Z,4.60
2019-03-11T00:29:49.311Z,4.60
2019-03-11T00:34:52.754Z,4.40
2019-03-11T00:39:56.401Z,4.30
2019-03-11T00:45:00.046Z,4.40
2019-03-11T00:50:04.839Z,4.30
2019-03-11T00:55:08.609Z,4.30
2019-03-11T01:00:21.611Z,4.30
2019-03-11T01:05:25.422Z,4.30
2019-03-11T01:10:29.109Z,4.30
2019-03-11T01:15:32.846Z,4.30
2019-03-11T01:20:36.501Z,4.40
2019-03-11T01:25:40.141Z,4.20
2019-03-11T01:30:44.321Z,4.10
2019-03-11T01:35:47.969Z,4.00
2019-03-11T01:40:51.974Z,3.90
2019-03-11T01:45:55.845Z,3.90
2019-03-11T01:50:59.740Z,3.90
2019-03-11T01:56:03.461Z,4.00
2019-03-11T02:01:07.208Z,4.00
2019-03-11T02:06:11.031Z,4.20
2019-03-11T02:11:14.941Z,4.20
2019-03-11T02:16:18.585Z,4.20
2019-03-11T02:21:22.797Z,4.20
2019-03-11T02:26:26.697Z,4.30
2019-03-11T02:31:30.726Z,4.20
2019-03-11T02:36:34.604Z,4.10
2019-03-11T02:41:38.508Z,4.20
2019-03-11T02:46:42.430Z,4.20
2019-03-11T02:51:46.409Z,4.10
2019-03-11T02:56:50.402Z,4.10
2019-03-11T03:02:16.807Z,4.00
2019-03-11T03:07:20.690Z,4.20
2019-03-11T03:12:24.333Z,4.20
2019-03-11T03:17:28.002Z,4.20
2019-03-11T03:22:31.913Z,4.30
2019-03-11T03:27:35.606Z,4.40
2019-03-11T03:32:39.306Z,4.50
2019-03-11T03:37:43.034Z,4.40
2019-03-11T03:42:46.830Z,4.30
2019-03-11T03:47:50.510Z,4.30
2019-03-11T03:52:54.206Z,4.30
2019-03-11T03:57:58.099Z,4.30
2019-03-11T04:03:02.015Z,4.20
2019-03-11T04:08:05.699Z,4.20
2019-03-11T04:13:09.643Z,4.10
2019-03-11T04:18:13.375Z,4.10
2019-03-11T04:23:17.030Z,4.10
2019-03-11T04:28:20.690Z,3.90
2019-03-11T04:33:24.440Z,4.10
2019-03-11T04:38:28.465Z,4.00
2019-03-11T04:43:32.154Z,3.90
2019-03-11T04:48:36.069Z,3.90
2019-03-11T04:53:39.987Z,3.90
2019-03-11T04:58:43.938Z,4.00
2019-03-11T05:03:47.883Z,3.80
2019-03-11T05:08:51.563Z,3.90
2019-03-11T05:13:55.602Z,4.00
2019-03-11T05:18:59.362Z,4.00
2019-03-11T05:24:03.088Z,3.90
2019-03-11T05:29:06.783Z,4.00
2019-03-11T05:34:10.739Z,4.10
2019-03-11T05:39:14.485Z,4.20
2019-03-11T05:44:18.193Z,4.30
2019-03-11T05:49:22.123Z,4.30
2019-03-11T05:54:26.540Z,4.40
2019-03-11T05:59:30.503Z,4.40
2019-03-11T06:04:34.234Z,4.50
2019-03-11T06:09:37.914Z,4.50
2019-03-11T06:14:41.589Z,4.50
2019-03-11T06:19:46.061Z,4.70
2019-03-11T06:24:49.762Z,4.90
2019-03-11T06:29:53.470Z,5.00
2019-03-11T06:34:57.263Z,5.10
2019-03-11T06:40:00.979Z,5.10
2019-03-11T06:45:05.087Z,5.20
2019-03-11T06:50:08.933Z,5.20
2019-03-11T06:55:12.749Z,5.30
2019-03-11T07:00:16.801Z,5.40
2019-03-11T07:05:21.208Z,5.40
2019-03-11T07:10:25.574Z,5.50
2019-03-11T07:15:29.467Z,5.60
2019-03-11T07:20:33.369Z,5.60
2019-03-11T07:25:37.056Z,5.60
2019-03-11T07:30:40.772Z,5.70
2019-03-11T07:35:44.593Z,5.60
2019-03-11T07:40:48.333Z,5.40
2019-03-11T07:45:52.050Z,5.30
2019-03-11T07:50:55.977Z,5.30
2019-03-11T07:55:59.770Z,5.20
2019-03-11T08:01:03.503Z,5.10
2019-03-11T08:06:14.807Z,5.00
2019-03-11T08:11:13.146Z,4.90
2019-03-11T08:16:17.150Z,4.80
2019-03-11T08:21:20.828Z,4.80
2019-03-11T08:26:24.821Z,4.90
2019-03-11T08:31:28.748Z,5.00
2019-03-11T08:36:32.415Z,5.10
2019-03-11T08:41:36.170Z,5.10
2019-03-11T08:46:39.878Z,5.10
2019-03-11T08:51:43.595Z,5.40
2019-03-11T08:56:47.347Z,5.60
2019-03-11T09:01:51.001Z,5.40
2019-03-11T09:06:54.686Z,5.50
2019-03-11T09:11:58.569Z,7.10
2019-03-11T09:17:02.236Z,8.00
2019-03-11T09:22:05.962Z,12.00
2019-03-11T09:27:09.775Z,12.80
2019-03-11T09:32:13.882Z,9.90
2019-03-11T09:37:17.666Z,9.30
2019-03-11T09:42:21.406Z,10.90
2019-03-11T09:47:25.389Z,12.50
2019-03-11T09:52:29.353Z,11.70
2019-03-11T09:57:33.021Z,15.20
2019-03-11T10:02:37.077Z,17.00
2019-03-11T10:07:40.848Z,18.20
2019-03-11T10:12:44.738Z,14.70
2019-03-11T10:17:48.504Z,13.40
2019-03-11T10:22:52.319Z,13.80
2019-03-11T10:27:56.078Z,14.10
2019-03-11T10:32:59.747Z,14.60
2019-03-11T10:38:03.716Z,14.40
2019-03-11T10:43:07.677Z,11.10
2019-03-11T10:48:11.602Z,10.10
2019-03-11T10:53:15.621Z,12.50
2019-03-11T10:58:19.320Z,16.60
2019-03-11T11:03:23.065Z,16.60
2019-03-11T11:08:26.801Z,13.40
2019-03-11T11:13:30.531Z,11.80
2019-03-11T11:18:34.348Z,14.40
2019-03-11T11:23:38.076Z,16.70
2019-03-11T11:28:41.843Z,15.80
2019-03-11T11:33:45.886Z,15.20
2019-03-11T11:38:49.625Z,10.70
2019-03-11T11:43:53.453Z,8.40
2019-03-11T11:48:57.118Z,8.20
2019-03-11T11:54:01.056Z,11.20
2019-03-11T11:59:04.807Z,14.80
2019-03-11T12:04:08.572Z,14.00
2019-03-11T12:09:12.272Z,16.70
2019-03-11T12:14:15.969Z,17.50
2019-03-11T12:19:19.907Z,16.40
2019-03-11T12:24:23.784Z,13.90
2019-03-11T12:29:28.168Z,11.40
2019-03-11T12:34:32.604Z,9.40
2019-03-11T12:39:36.279Z,8.70
2019-03-11T12:44:39.920Z,8.20
2019-03-11T12:49:43.829Z,8.00
2019-03-11T12:54:47.510Z,9.00
2019-03-11T12:59:51.406Z,11.10
2019-03-11T13:04:55.365Z,11.00
2019-03-11T13:09:59.198Z,11.50
2019-03-11T13:15:04.753Z,12.90
2019-03-11T13:20:11.354Z,10.10
2019-03-11T13:25:15.038Z,9.50
2019-03-11T13:30:19.286Z,13.00
2019-03-11T13:35:24.601Z,15.50
2019-03-11T13:40:44.834Z,14.40
2019-03-11T13:45:48.979Z,13.10
2019-03-11T13:50:52.950Z,10.80
2019-03-11T13:55:56.826Z,8.90
2019-03-11T14:01:03.350Z,8.10
2019-03-11T14:06:11.237Z,8.00
2019-03-11T14:11:15.725Z,9.50
2019-03-11T14:16:19.533Z,11.70
2019-03-11T14:21:26.073Z,11.50
2019-03-11T14:26:29.231Z,9.60
2019-03-11T14:31:33.245Z,8.50
2019-03-11T14:36:37.675Z,8.50
2019-03-11T14:41:41.427Z,8.90
2019-03-11T14:46:48.868Z,8.60
2019-03-11T14:51:52.798Z,7.90
2019-03-11T14:56:56.932Z,6.70
2019-03-11T15:02:00.682Z,6.50
2019-03-11T15:07:04.423Z,6.60
2019-03-11T15:12:08.426Z,6.70
2019-03-11T15:17:12.258Z,6.60
2019-03-11T15:22:17.766Z,6.70
2019-03-11T15:27:21.807Z,6.80
2019-03-11T15:32:25.812Z,6.70
2019-03-11T15:37:29.493Z,6.70
2019-03-11T15:42:33.447Z,6.70
2019-03-11T15:47:37.383Z,6.80
2019-03-11T15:52:41.117Z,6.80
2019-03-11T15:57:45.550Z,6.90
2019-03-11T16:02:49.494Z,6.90
2019-03-11T16:07:56.927Z,7.00
2019-03-11T16:13:04.842Z,6.80
2019-03-11T16:18:08.904Z,7.00
2019-03-11T16:23:12.714Z,7.00
2019-03-11T16:28:16.472Z,6.80
2019-03-11T16:33:20.127Z,6.60
2019-03-11T16:38:24.035Z,6.60
2019-03-11T16:43:28.002Z,6.60
2019-03-11T16:48:31.670Z,6.50
2019-03-11T16:53:35.676Z,6.50
2019-03-11T16:58:39.415Z,6.30
2019-03-11T17:03:43.131Z,6.20
2019-03-11T17:08:47.068Z,6.20
2019-03-11T17:13:51.001Z,6.10
2019-03-11T17:18:57.803Z,6.20
2019-03-11T17:24:01.589Z,6.20
2019-03-11T17:29:05.317Z,6.30
2019-03-11T17:34:09.117Z,6.30
2019-03-11T17:39:12.978Z,6.40
2019-03-11T17:44:16.665Z,6.20
2019-03-11T17:49:20.701Z,6.10
2019-03-11T17:54:24.528Z,6.00
2019-03-11T17:59:28.529Z,6.00
2019-03-11T18:04:32.217Z,6.00
2019-03-11T18:09:35.985Z,5.90
2019-03-11T18:14:39.657Z,5.90
2019-03-11T18:19:43.337Z,6.00
2019-03-11T18:24:47.271Z,5.90
2019-03-11T18:29:50.953Z,5.80
2019-03-11T18:34:54.695Z,5.80
2019-03-11T18:39:58.449Z,5.90
2019-03-11T18:45:02.514Z,5.50
2019-03-11T18:50:07.644Z,5.00
2019-03-11T18:55:11.435Z,4.60
2019-03-11T19:00:17.105Z,4.40
2019-03-11T19:05:21.097Z,4.20
2019-03-11T19:10:25.182Z,4.10
2019-03-11T19:15:29.053Z,4.00
2019-03-11T19:20:34.193Z,3.90
2019-03-11T19:25:37.943Z,4.00
2019-03-11T19:30:41.606Z,3.90
2019-03-11T19:35:45.305Z,3.70
2019-03-11T19:40:49.148Z,3.70
2019-03-11T19:45:52.886Z,3.70
2019-03-11T19:50:56.900Z,3.80
2019-03-11T19:56:00.814Z,3.80
2019-03-11T20:01:05.647Z,3.80
2019-03-11T20:06:09.455Z,3.90
2019-03-11T20:11:13.337Z,4.00
2019-03-11T20:16:17.154Z,3.90
2019-03-11T20:21:21.134Z,4.10
2019-03-11T20:26:24.870Z,4.00
2019-03-11T20:31:28.654Z,4.10
2019-03-11T20:36:32.344Z,4.10
2019-03-11T20:41:36.328Z,4.20
2019-03-11T20:46:40.265Z,4.20
2019-03-11T20:51:44.309Z,4.20
2019-03-11T20:56:48.045Z,4.30
2019-03-11T21:01:51.899Z,4.40
2019-03-11T21:06:55.705Z,4.40
2019-03-11T21:11:59.654Z,4.40
2019-03-11T21:17:03.459Z,4.40
2019-03-11T21:22:07.703Z,4.40
2019-03-11T21:27:11.449Z,4.50
2019-03-11T21:32:15.306Z,4.60
2019-03-11T21:37:19.088Z,4.70
2019-03-11T21:42:23.079Z,4.60
2019-03-11T21:47:26.944Z,4.50
2019-03-11T21:52:30.875Z,4.50
2019-03-11T21:57:34.614Z,4.60
2019-03-11T22:02:38.504Z,4.50
2019-03-11T22:07:42.334Z,4.60
2019-03-11T22:12:46.075Z,4.70
2019-03-11T22:17:49.911Z,4.70
2019-03-11T22:22:53.862Z,4.40
2019-03-11T22:27:57.641Z,4.20
2019-03-11T22:33:01.305Z,4.10
2019-03-11T22:38:05.044Z,3.90
2019-03-11T22:43:08.945Z,3.90
2019-03-11T22:48:12.602Z,3.90
2019-03-11T22:53:16.297Z,3.70
2019-03-11T22:58:20.262Z,3.80
2019-03-11T23:03:24.910Z,3.80
2019-03-11T23:08:28.827Z,3.80
2019-03-11T23:13:32.756Z,3.70
2019-03-11T23:18:36.442Z,3.80
2019-03-11T23:23:40.169Z,3.80
2019-03-11T23:28:43.847Z,3.90
2019-03-11T23:33:47.606Z,3.90
2019-03-11T23:38:51.285Z,4.00
2019-03-11T23:43:55.194Z,4.10
2019-03-11T23:48:58.881Z,4.00
2019-03-11T23:54:02.800Z,4.10
2019-03-11T23:59:06.459Z,4.20
